sensor_id;sensor_type;location;lat;lon;timestamp;temperature;humidity
13205;DHT22;6667;52.634;9.226;2023-08-31T06:31:51;12.60;99.90
13205;DHT22;6667;52.634;9.226;2023-08-31T06:34:17;12.60;99.90
13205;DHT22;6667;52.634;9.226;2023-08-31T06:36:44;12.60;99.90
13205;DHT22;6667;52.634;9.226;2023-08-31T06:39:11;12.70;99.90
13205;DHT22;6667;52.634;9.226;2023-08-31T06:41:37;12.80;99.90
13205;DHT22;6667;52.634;9.226;2023-08-31T06:44:04;12.80;99.90
13205;DHT22;6667;52.634;9.226;2023-08-31T06:46:31;12.90;99.90
13205;DHT22;6667;52.634;9.226;2023-08-31T06:49:04;12.90;99.90
13205;DHT22;6667;52.634;9.226;2023-08-31T06:51:31;13.00;99.90
13205;DHT22;6667;52.634;9.226;2023-08-31T06:53:58;13.00;99.90
13205;DHT22;6667;52.634;9.226;2023-08-31T06:56:30;13.00;99.90
13205;DHT22;6667;52.634;9.226;2023-08-31T06:58:56;13.30;99.90
13205;DHT22;6667;52.634;9.226;2023-08-31T07:01:23;13.70;99.90
13205;DHT22;6667;52.634;9.226;2023-08-31T07:03:50;13.80;99.90
13205;DHT22;6667;52.634;9.226;2023-08-31T07:06:18;13.80;99.90
13205;DHT22;6667;52.634;9.226;2023-08-31T07:08:45;14.00;99.90
13205;DHT22;6667;52.634;9.226;2023-08-31T07:11:12;13.90;99.90
13205;DHT22;6667;52.634;9.226;2023-08-31T07:13:39;14.00;99.90
13205;DHT22;6667;52.634;9.226;2023-08-31T07:16:06;13.80;99.90
13205;DHT22;6667;52.634;9.226;2023-08-31T07:18:33;13.90;99.90
13205;DHT22;6667;52.634;9.226;2023-08-31T07:20:59;13.90;99.90
13205;DHT22;6667;52.634;9.226;2023-08-31T07:23:27;14.10;99.90
13205;DHT22;6667;52.634;9.226;2023-08-31T07:25:56;14.30;99.90
13205;DHT22;6667;52.634;9.226;2023-08-31T07:28:25;14.50;99.90
13205;DHT22;6667;52.634;9.226;2023-08-31T07:31:00;14.60;99.90
13205;DHT22;6667;52.634;9.226;2023-08-31T07:33:28;14.40;99.90
13205;DHT22;6667;52.634;9.226;2023-08-31T07:35:56;14.50;99.90
13205;DHT22;6667;52.634;9.226;2023-08-31T07:38:22;14.40;99.90
13205;DHT22;6667;52.634;9.226;2023-08-31T07:40:50;14.40;99.90
13205;DHT22;6667;52.634;9.226;2023-08-31T07:43:17;14.30;99.90
13205;DHT22;6667;52.634;9.226;2023-08-31T07:45:44;14.30;99.90
13205;DHT22;6667;52.634;9.226;2023-08-31T07:48:11;14.30;99.90
13205;DHT22;6667;52.634;9.226;2023-08-31T07:50:40;14.30;99.90
13205;DHT22;6667;52.634;9.226;2023-08-31T07:53:07;14.30;99.90
13205;DHT22;6667;52.634;9.226;2023-08-31T07:55:34;14.40;99.90
13205;DHT22;6667;52.634;9.226;2023-08-31T07:58:02;14.40;99.90
13205;DHT22;6667;52.634;9.226;2023-08-31T08:00:29;14.40;99.90
13205;DHT22;6667;52.634;9.226;2023-08-31T08:02:56;14.70;99.90
13205;DHT22;6667;52.634;9.226;2023-08-31T08:05:22;14.90;99.90
13205;DHT22;6667;52.634;9.226;2023-08-31T08:07:50;14.80;99.90
13205;DHT22;6667;52.634;9.226;2023-08-31T08:10:17;14.80;99.90
13205;DHT22;6667;52.634;9.226;2023-08-31T08:12:43;14.90;99.90
13205;DHT22;6667;52.634;9.226;2023-08-31T08:15:12;14.90;1.00
13205;DHT22;6667;52.634;9.226;2023-08-31T08:17:39;14.70;1.00
13205;DHT22;6667;52.634;9.226;2023-08-31T08:20:07;14.80;1.00
13205;DHT22;6667;52.634;9.226;2023-08-31T08:22:34;14.90;1.00
13205;DHT22;6667;52.634;9.226;2023-08-31T08:25:02;14.90;99.90
13205;DHT22;6667;52.634;9.226;2023-08-31T08:27:29;14.90;99.90
13205;DHT22;6667;52.634;9.226;2023-08-31T08:29:57;14.80;1.00
13205;DHT22;6667;52.634;9.226;2023-08-31T08:32:25;14.80;1.00
13205;DHT22;6667;52.634;9.226;2023-08-31T08:34:51;15.00;1.00
13205;DHT22;6667;52.634;9.226;2023-08-31T08:37:19;15.10;1.00
13205;DHT22;6667;52.634;9.226;2023-08-31T08:39:48;15.00;57.50
13205;DHT22;6667;52.634;9.226;2023-08-31T08:42:15;15.00;99.90
13205;DHT22;6667;52.634;9.226;2023-08-31T08:44:43;15.10;1.00
13205;DHT22;6667;52.634;9.226;2023-08-31T08:47:11;15.10;1.00
13205;DHT22;6667;52.634;9.226;2023-08-31T08:49:39;15.20;1.00
13205;DHT22;6667;52.634;9.226;2023-08-31T08:52:06;15.20;1.00
13205;DHT22;6667;52.634;9.226;2023-08-31T08:54:34;15.30;1.00
13205;DHT22;6667;52.634;9.226;2023-08-31T08:57:01;15.30;1.00
13205;DHT22;6667;52.634;9.226;2023-08-31T08:59:30;15.50;5.10
13205;DHT22;6667;52.634;9.226;2023-08-31T09:01:56;15.80;27.50
13205;DHT22;6667;52.634;9.226;2023-08-31T09:04:23;16.20;29.30
13205;DHT22;6667;52.634;9.226;2023-08-31T09:06:51;16.30;19.80
13205;DHT22;6667;52.634;9.226;2023-08-31T09:09:18;16.30;23.20
13205;DHT22;6667;52.634;9.226;2023-08-31T09:11:45;16.40;22.60
13205;DHT22;6667;52.634;9.226;2023-08-31T09:14:15;16.60;20.10
13205;DHT22;6667;52.634;9.226;2023-08-31T09:16:44;16.60;18.50
13205;DHT22;6667;52.634;9.226;2023-08-31T09:19:18;16.20;16.10
13205;DHT22;6667;52.634;9.226;2023-08-31T09:21:47;16.10;20.80
13205;DHT22;6667;52.634;9.226;2023-08-31T09:24:15;16.30;19.70
13205;DHT22;6667;52.634;9.226;2023-08-31T09:26:43;16.40;14.90
13205;DHT22;6667;52.634;9.226;2023-08-31T09:29:10;17.30;6.50
13205;DHT22;6667;52.634;9.226;2023-08-31T09:31:37;17.80;1.00
13205;DHT22;6667;52.634;9.226;2023-08-31T09:34:04;18.20;1.00
13205;DHT22;6667;52.634;9.226;2023-08-31T09:36:31;18.50;1.00
13205;DHT22;6667;52.634;9.226;2023-08-31T09:38:58;17.90;1.00
13205;DHT22;6667;52.634;9.226;2023-08-31T09:41:26;17.70;1.00
13205;DHT22;6667;52.634;9.226;2023-08-31T09:43:53;18.20;1.00
13205;DHT22;6667;52.634;9.226;2023-08-31T09:46:20;19.20;1.00
13205;DHT22;6667;52.634;9.226;2023-08-31T09:48:47;19.10;1.00
13205;DHT22;6667;52.634;9.226;2023-08-31T09:51:15;18.60;1.00
13205;DHT22;6667;52.634;9.226;2023-08-31T09:53:48;18.70;1.00
13205;DHT22;6667;52.634;9.226;2023-08-31T09:56:20;18.70;1.00
13205;DHT22;6667;52.634;9.226;2023-08-31T09:58:48;18.70;1.00
13205;DHT22;6667;52.634;9.226;2023-08-31T10:01:16;18.50;1.00
13205;DHT22;6667;52.634;9.226;2023-08-31T10:03:43;18.80;1.00
13205;DHT22;6667;52.634;9.226;2023-08-31T10:06:10;19.00;1.00
13205;DHT22;6667;52.634;9.226;2023-08-31T10:08:38;19.80;1.00
13205;DHT22;6667;52.634;9.226;2023-08-31T10:11:05;19.80;1.00
13205;DHT22;6667;52.634;9.226;2023-08-31T10:13:33;19.50;1.00
13205;DHT22;6667;52.634;9.226;2023-08-31T10:16:05;19.10;1.00
13205;DHT22;6667;52.634;9.226;2023-08-31T10:18:34;18.90;1.00
13205;DHT22;6667;52.634;9.226;2023-08-31T10:21:02;18.40;1.00
13205;DHT22;6667;52.634;9.226;2023-08-31T10:23:29;18.40;1.00
13205;DHT22;6667;52.634;9.226;2023-08-31T10:26:00;18.20;1.00
13205;DHT22;6667;52.634;9.226;2023-08-31T10:28:29;18.30;1.00
13205;DHT22;6667;52.634;9.226;2023-08-31T10:31:07;18.00;1.00
13205;DHT22;6667;52.634;9.226;2023-08-31T10:33:37;18.00;1.00
13205;DHT22;6667;52.634;9.226;2023-08-31T10:36:11;18.30;1.00
13205;DHT22;6667;52.634;9.226;2023-08-31T10:38:38;18.30;1.00
13205;DHT22;6667;52.634;9.226;2023-08-31T10:41:18;18.60;1.00
13205;DHT22;6667;52.634;9.226;2023-08-31T10:43:47;18.80;1.00
13205;DHT22;6667;52.634;9.226;2023-08-31T10:46:17;18.90;1.00
13205;DHT22;6667;52.634;9.226;2023-08-31T10:48:51;18.90;1.00
13205;DHT22;6667;52.634;9.226;2023-08-31T10:51:18;18.80;1.00
13205;DHT22;6667;52.634;9.226;2023-08-31T10:53:46;18.90;1.00
13205;DHT22;6667;52.634;9.226;2023-08-31T10:56:14;19.20;1.00
13205;DHT22;6667;52.634;9.226;2023-08-31T10:58:41;19.00;1.00
13205;DHT22;6667;52.634;9.226;2023-08-31T11:01:10;19.70;1.00
13205;DHT22;6667;52.634;9.226;2023-08-31T11:03:59;19.40;1.00
13205;DHT22;6667;52.634;9.226;2023-08-31T11:06:25;19.70;1.00
13205;DHT22;6667;52.634;9.226;2023-08-31T11:08:55;19.90;1.00
13205;DHT22;6667;52.634;9.226;2023-08-31T11:11:23;20.30;1.00
13205;DHT22;6667;52.634;9.226;2023-08-31T11:13:56;20.80;1.00
13205;DHT22;6667;52.634;9.226;2023-08-31T11:16:23;20.80;1.00
13205;DHT22;6667;52.634;9.226;2023-08-31T11:18:50;21.00;1.00
13205;DHT22;6667;52.634;9.226;2023-08-31T11:21:19;21.40;1.00
13205;DHT22;6667;52.634;9.226;2023-08-31T11:23:47;20.80;1.00
13205;DHT22;6667;52.634;9.226;2023-08-31T11:26:15;20.60;1.00
13205;DHT22;6667;52.634;9.226;2023-08-31T11:28:43;21.10;1.00
13205;DHT22;6667;52.634;9.226;2023-08-31T11:31:11;21.30;1.00
13205;DHT22;6667;52.634;9.226;2023-08-31T11:33:39;21.60;1.00
13205;DHT22;6667;52.634;9.226;2023-08-31T11:36:07;21.70;1.00
13205;DHT22;6667;52.634;9.226;2023-08-31T11:38:35;22.20;1.00
13205;DHT22;6667;52.634;9.226;2023-08-31T11:41:02;22.50;1.00
13205;DHT22;6667;52.634;9.226;2023-08-31T11:43:29;22.50;1.00
13205;DHT22;6667;52.634;9.226;2023-08-31T11:45:56;22.40;1.00
13205;DHT22;6667;52.634;9.226;2023-08-31T11:48:23;22.40;1.00
13205;DHT22;6667;52.634;9.226;2023-08-31T11:50:50;22.30;1.00
13205;DHT22;6667;52.634;9.226;2023-08-31T11:53:18;22.40;1.00
13205;DHT22;6667;52.634;9.226;2023-08-31T11:55:52;22.20;1.00
13205;DHT22;6667;52.634;9.226;2023-08-31T11:58:19;21.80;1.00
13205;DHT22;6667;52.634;9.226;2023-08-31T12:00:54;21.40;1.00
13205;DHT22;6667;52.634;9.226;2023-08-31T12:03:21;21.80;1.00
13205;DHT22;6667;52.634;9.226;2023-08-31T12:05:51;21.50;1.00
13205;DHT22;6667;52.634;9.226;2023-08-31T12:08:24;21.60;1.00
13205;DHT22;6667;52.634;9.226;2023-08-31T12:10:53;22.00;1.00
13205;DHT22;6667;52.634;9.226;2023-08-31T12:13:26;22.30;1.00
13205;DHT22;6667;52.634;9.226;2023-08-31T12:15:54;22.30;1.00
13205;DHT22;6667;52.634;9.226;2023-08-31T12:18:21;22.00;1.00
13205;DHT22;6667;52.634;9.226;2023-08-31T12:20:51;21.80;1.00
13205;DHT22;6667;52.634;9.226;2023-08-31T12:23:18;21.90;1.00
13205;DHT22;6667;52.634;9.226;2023-08-31T12:25:47;21.80;1.00
13205;DHT22;6667;52.634;9.226;2023-08-31T12:28:16;22.00;1.00
13205;DHT22;6667;52.634;9.226;2023-08-31T12:30:47;22.00;1.00
13205;DHT22;6667;52.634;9.226;2023-08-31T12:33:14;21.90;1.00
13205;DHT22;6667;52.634;9.226;2023-08-31T12:35:41;21.80;1.00
13205;DHT22;6667;52.634;9.226;2023-08-31T12:38:07;21.80;1.00
13205;DHT22;6667;52.634;9.226;2023-08-31T12:40:34;21.60;1.00
13205;DHT22;6667;52.634;9.226;2023-08-31T12:43:01;21.60;1.00
13205;DHT22;6667;52.634;9.226;2023-08-31T12:45:30;21.50;1.00
13205;DHT22;6667;52.634;9.226;2023-08-31T12:47:56;21.40;1.00
13205;DHT22;6667;52.634;9.226;2023-08-31T12:50:24;21.40;1.00
13205;DHT22;6667;52.634;9.226;2023-08-31T12:52:50;21.30;1.00
13205;DHT22;6667;52.634;9.226;2023-08-31T12:55:17;21.40;1.00
13205;DHT22;6667;52.634;9.226;2023-08-31T12:57:45;21.30;1.00
13205;DHT22;6667;52.634;9.226;2023-08-31T13:00:14;20.90;1.00
13205;DHT22;6667;52.634;9.226;2023-08-31T13:02:42;20.40;1.00
13205;DHT22;6667;52.634;9.226;2023-08-31T13:05:10;20.20;1.00
13205;DHT22;6667;52.634;9.226;2023-08-31T13:07:38;20.30;1.00
13205;DHT22;6667;52.634;9.226;2023-08-31T13:10:05;20.00;1.00
13205;DHT22;6667;52.634;9.226;2023-08-31T13:12:33;19.70;1.00
13205;DHT22;6667;52.634;9.226;2023-08-31T13:15:00;19.60;1.00
13205;DHT22;6667;52.634;9.226;2023-08-31T13:17:28;19.90;1.00
13205;DHT22;6667;52.634;9.226;2023-08-31T13:20:07;20.50;1.00
13205;DHT22;6667;52.634;9.226;2023-08-31T13:22:34;21.00;1.00
13205;DHT22;6667;52.634;9.226;2023-08-31T13:25:01;21.10;1.00
13205;DHT22;6667;52.634;9.226;2023-08-31T13:27:30;21.00;1.00
13205;DHT22;6667;52.634;9.226;2023-08-31T13:29:59;20.90;1.00
13205;DHT22;6667;52.634;9.226;2023-08-31T13:32:26;21.20;1.00
13205;DHT22;6667;52.634;9.226;2023-08-31T13:34:53;21.00;1.00
13205;DHT22;6667;52.634;9.226;2023-08-31T13:37:21;20.90;1.00
13205;DHT22;6667;52.634;9.226;2023-08-31T13:39:50;20.40;1.00
13205;DHT22;6667;52.634;9.226;2023-08-31T13:42:19;20.50;1.00
13205;DHT22;6667;52.634;9.226;2023-08-31T13:44:46;20.30;1.00
13205;DHT22;6667;52.634;9.226;2023-08-31T13:47:13;20.30;1.00
13205;DHT22;6667;52.634;9.226;2023-08-31T13:49:40;20.20;1.00
13205;DHT22;6667;52.634;9.226;2023-08-31T13:52:07;20.10;1.00
13205;DHT22;6667;52.634;9.226;2023-08-31T13:54:37;20.00;1.00
13205;DHT22;6667;52.634;9.226;2023-08-31T13:57:04;19.70;1.00
13205;DHT22;6667;52.634;9.226;2023-08-31T13:59:31;19.30;1.00
13205;DHT22;6667;52.634;9.226;2023-08-31T14:01:57;19.00;1.00
13205;DHT22;6667;52.634;9.226;2023-08-31T14:04:24;19.00;1.00
13205;DHT22;6667;52.634;9.226;2023-08-31T14:06:51;18.90;1.00
13205;DHT22;6667;52.634;9.226;2023-08-31T14:09:18;18.80;1.00
13205;DHT22;6667;52.634;9.226;2023-08-31T14:11:46;18.70;1.00
13205;DHT22;6667;52.634;9.226;2023-08-31T14:14:13;19.00;1.00
13205;DHT22;6667;52.634;9.226;2023-08-31T14:16:41;19.10;1.00
13205;DHT22;6667;52.634;9.226;2023-08-31T14:19:07;19.30;1.00
13205;DHT22;6667;52.634;9.226;2023-08-31T14:21:34;19.30;1.00
13205;DHT22;6667;52.634;9.226;2023-08-31T14:24:01;19.30;1.00
13205;DHT22;6667;52.634;9.226;2023-08-31T14:26:29;19.20;1.00
13205;DHT22;6667;52.634;9.226;2023-08-31T14:28:57;19.30;1.00
13205;DHT22;6667;52.634;9.226;2023-08-31T14:31:26;19.40;1.00
13205;DHT22;6667;52.634;9.226;2023-08-31T14:33:52;19.20;1.00
13205;DHT22;6667;52.634;9.226;2023-08-31T14:36:21;19.10;1.00
13205;DHT22;6667;52.634;9.226;2023-08-31T14:38:48;18.90;1.00
13205;DHT22;6667;52.634;9.226;2023-08-31T14:41:14;18.90;1.00
13205;DHT22;6667;52.634;9.226;2023-08-31T14:43:41;18.80;1.00
13205;DHT22;6667;52.634;9.226;2023-08-31T14:46:09;18.70;1.00
13205;DHT22;6667;52.634;9.226;2023-08-31T14:48:36;18.60;1.00
13205;DHT22;6667;52.634;9.226;2023-08-31T14:51:03;18.50;1.00
13205;DHT22;6667;52.634;9.226;2023-08-31T14:53:29;18.60;1.00
13205;DHT22;6667;52.634;9.226;2023-08-31T14:55:56;18.50;1.00
13205;DHT22;6667;52.634;9.226;2023-08-31T14:58:23;18.60;1.00
13205;DHT22;6667;52.634;9.226;2023-08-31T15:00:50;18.40;1.00
13205;DHT22;6667;52.634;9.226;2023-08-31T15:03:18;18.50;1.00
13205;DHT22;6667;52.634;9.226;2023-08-31T15:05:48;18.60;1.00
13205;DHT22;6667;52.634;9.226;2023-08-31T15:08:15;18.60;1.00
13205;DHT22;6667;52.634;9.226;2023-08-31T15:10:42;18.70;1.00
13205;DHT22;6667;52.634;9.226;2023-08-31T15:13:09;18.80;1.00
13205;DHT22;6667;52.634;9.226;2023-08-31T15:15:35;18.70;1.00
13205;DHT22;6667;52.634;9.226;2023-08-31T15:18:02;18.70;1.00
13205;DHT22;6667;52.634;9.226;2023-08-31T15:20:31;18.70;1.00
13205;DHT22;6667;52.634;9.226;2023-08-31T15:22:58;18.80;1.00
13205;DHT22;6667;52.634;9.226;2023-08-31T15:25:25;18.70;1.00
13205;DHT22;6667;52.634;9.226;2023-08-31T15:27:52;18.80;1.00
13205;DHT22;6667;52.634;9.226;2023-08-31T15:30:19;18.90;1.00
13205;DHT22;6667;52.634;9.226;2023-08-31T15:32:46;19.00;1.00
13205;DHT22;6667;52.634;9.226;2023-08-31T15:35:13;19.10;1.00
13205;DHT22;6667;52.634;9.226;2023-08-31T15:37:42;19.10;1.00
13205;DHT22;6667;52.634;9.226;2023-08-31T15:40:13;19.20;1.00
13205;DHT22;6667;52.634;9.226;2023-08-31T15:42:39;19.20;1.00
13205;DHT22;6667;52.634;9.226;2023-08-31T15:45:07;19.10;1.00
13205;DHT22;6667;52.634;9.226;2023-08-31T15:47:34;18.90;1.00
13205;DHT22;6667;52.634;9.226;2023-08-31T15:50:01;18.80;1.00
13205;DHT22;6667;52.634;9.226;2023-08-31T15:52:27;18.50;1.00
13205;DHT22;6667;52.634;9.226;2023-08-31T15:54:55;18.40;1.00
13205;DHT22;6667;52.634;9.226;2023-08-31T15:57:22;18.20;1.00
13205;DHT22;6667;52.634;9.226;2023-08-31T15:59:49;17.80;1.00
13205;DHT22;6667;52.634;9.226;2023-08-31T16:02:16;17.60;1.00
13205;DHT22;6667;52.634;9.226;2023-08-31T16:04:43;17.30;1.00
13205;DHT22;6667;52.634;9.226;2023-08-31T16:07:10;17.40;1.00
13205;DHT22;6667;52.634;9.226;2023-08-31T16:09:37;17.50;1.00
13205;DHT22;6667;52.634;9.226;2023-08-31T16:12:05;17.60;1.00
13205;DHT22;6667;52.634;9.226;2023-08-31T16:14:33;17.70;1.00
13205;DHT22;6667;52.634;9.226;2023-08-31T16:17:01;17.70;1.00
13205;DHT22;6667;52.634;9.226;2023-08-31T16:19:28;17.50;1.00
13205;DHT22;6667;52.634;9.226;2023-08-31T16:21:55;17.60;1.00
13205;DHT22;6667;52.634;9.226;2023-08-31T16:24:22;17.70;1.00
13205;DHT22;6667;52.634;9.226;2023-08-31T16:26:48;17.80;1.00
13205;DHT22;6667;52.634;9.226;2023-08-31T16:29:17;17.80;1.00
13205;DHT22;6667;52.634;9.226;2023-08-31T16:31:43;17.80;1.00
13205;DHT22;6667;52.634;9.226;2023-08-31T16:34:10;17.80;1.00
13205;DHT22;6667;52.634;9.226;2023-08-31T16:36:37;17.90;1.00
13205;DHT22;6667;52.634;9.226;2023-08-31T16:39:04;17.90;1.00
13205;DHT22;6667;52.634;9.226;2023-08-31T16:41:31;18.00;1.00
13205;DHT22;6667;52.634;9.226;2023-08-31T16:43:58;18.20;1.00
13205;DHT22;6667;52.634;9.226;2023-08-31T16:46:26;18.30;1.00
13205;DHT22;6667;52.634;9.226;2023-08-31T16:48:53;18.30;1.00
13205;DHT22;6667;52.634;9.226;2023-08-31T16:51:20;18.40;1.00
13205;DHT22;6667;52.634;9.226;2023-08-31T16:53:47;18.40;1.00
13205;DHT22;6667;52.634;9.226;2023-08-31T16:56:14;18.30;1.00
13205;DHT22;6667;52.634;9.226;2023-08-31T16:58:41;18.20;1.00
13205;DHT22;6667;52.634;9.226;2023-08-31T17:01:08;18.10;1.00
13205;DHT22;6667;52.634;9.226;2023-08-31T17:03:37;17.90;1.00
13205;DHT22;6667;52.634;9.226;2023-08-31T17:06:04;17.90;1.00
13205;DHT22;6667;52.634;9.226;2023-08-31T17:08:31;17.80;1.00
13205;DHT22;6667;52.634;9.226;2023-08-31T17:10:58;17.70;1.00
13205;DHT22;6667;52.634;9.226;2023-08-31T17:13:24;17.50;1.00
13205;DHT22;6667;52.634;9.226;2023-08-31T17:15:51;17.30;1.00
13205;DHT22;6667;52.634;9.226;2023-08-31T17:18:18;17.20;1.00
13205;DHT22;6667;52.634;9.226;2023-08-31T17:20:46;17.10;1.00
13205;DHT22;6667;52.634;9.226;2023-08-31T17:23:13;17.10;1.00
13205;DHT22;6667;52.634;9.226;2023-08-31T17:25:40;17.00;1.00
13205;DHT22;6667;52.634;9.226;2023-08-31T17:28:07;16.90;1.00
13205;DHT22;6667;52.634;9.226;2023-08-31T17:30:33;16.90;1.00
13205;DHT22;6667;52.634;9.226;2023-08-31T17:33:00;16.80;1.00
13205;DHT22;6667;52.634;9.226;2023-08-31T17:35:27;16.70;1.00
13205;DHT22;6667;52.634;9.226;2023-08-31T17:37:55;16.60;1.00
13205;DHT22;6667;52.634;9.226;2023-08-31T17:40:23;16.50;1.00
13205;DHT22;6667;52.634;9.226;2023-08-31T17:42:50;16.40;1.00
13205;DHT22;6667;52.634;9.226;2023-08-31T17:45:16;16.20;1.00
13205;DHT22;6667;52.634;9.226;2023-08-31T17:47:43;16.30;1.00
13205;DHT22;6667;52.634;9.226;2023-08-31T17:50:10;16.20;1.00
13205;DHT22;6667;52.634;9.226;2023-08-31T17:52:37;16.10;1.00
13205;DHT22;6667;52.634;9.226;2023-08-31T17:55:06;16.00;1.00
13205;DHT22;6667;52.634;9.226;2023-08-31T17:57:33;15.80;4.30
13205;DHT22;6667;52.634;9.226;2023-08-31T18:00:00;15.80;8.90
13205;DHT22;6667;52.634;9.226;2023-08-31T18:02:31;15.60;12.60
13205;DHT22;6667;52.634;9.226;2023-08-31T18:04:58;15.50;15.90
13205;DHT22;6667;52.634;9.226;2023-08-31T18:07:24;15.50;18.00
13205;DHT22;6667;52.634;9.226;2023-08-31T18:09:51;15.40;21.00
13205;DHT22;6667;52.634;9.226;2023-08-31T18:12:19;15.40;23.10
13205;DHT22;6667;52.634;9.226;2023-08-31T18:14:46;15.20;24.70
13205;DHT22;6667;52.634;9.226;2023-08-31T18:17:13;15.20;26.50
13205;DHT22;6667;52.634;9.226;2023-08-31T18:19:40;15.20;27.80
13205;DHT22;6667;52.634;9.226;2023-08-31T18:22:07;15.20;27.80
13205;DHT22;6667;52.634;9.226;2023-08-31T18:24:34;15.10;29.80
13205;DHT22;6667;52.634;9.226;2023-08-31T18:27:02;15.00;27.20
13205;DHT22;6667;52.634;9.226;2023-08-31T18:29:30;14.90;28.80
13205;DHT22;6667;52.634;9.226;2023-08-31T18:31:57;14.90;31.20
13205;DHT22;6667;52.634;9.226;2023-08-31T18:34:24;14.90;30.30
13205;DHT22;6667;52.634;9.226;2023-08-31T18:36:51;14.80;28.70
13205;DHT22;6667;52.634;9.226;2023-08-31T18:39:18;14.80;31.50
13205;DHT22;6667;52.634;9.226;2023-08-31T18:41:45;14.70;33.30
13205;DHT22;6667;52.634;9.226;2023-08-31T18:44:12;14.70;33.40
13205;DHT22;6667;52.634;9.226;2023-08-31T18:46:40;14.60;34.10
13205;DHT22;6667;52.634;9.226;2023-08-31T18:49:07;14.60;38.50
13205;DHT22;6667;52.634;9.226;2023-08-31T18:51:33;14.50;42.20
13205;DHT22;6667;52.634;9.226;2023-08-31T18:54:05;14.40;48.90
13205;DHT22;6667;52.634;9.226;2023-08-31T18:56:33;14.50;44.80
13205;DHT22;6667;52.634;9.226;2023-08-31T18:59:00;14.30;51.40
13205;DHT22;6667;52.634;9.226;2023-08-31T19:01:27;14.20;58.60
13205;DHT22;6667;52.634;9.226;2023-08-31T19:03:55;14.10;65.00
13205;DHT22;6667;52.634;9.226;2023-08-31T19:06:22;14.10;70.00
13205;DHT22;6667;52.634;9.226;2023-08-31T19:08:49;14.20;63.90
13205;DHT22;6667;52.634;9.226;2023-08-31T19:11:16;14.10;68.60
13205;DHT22;6667;52.634;9.226;2023-08-31T19:13:43;14.10;71.80
13205;DHT22;6667;52.634;9.226;2023-08-31T19:16:12;14.00;73.50
13205;DHT22;6667;52.634;9.226;2023-08-31T19:18:38;14.10;77.00
13205;DHT22;6667;52.634;9.226;2023-08-31T19:21:07;14.10;72.60
13205;DHT22;6667;52.634;9.226;2023-08-31T19:23:34;14.10;76.60
13205;DHT22;6667;52.634;9.226;2023-08-31T19:26:01;14.10;67.80
13205;DHT22;6667;52.634;9.226;2023-08-31T19:28:28;14.00;67.10
13205;DHT22;6667;52.634;9.226;2023-08-31T19:30:55;14.00;67.40
13205;DHT22;6667;52.634;9.226;2023-08-31T19:33:21;13.90;73.50
13205;DHT22;6667;52.634;9.226;2023-08-31T19:35:48;13.80;82.90
13205;DHT22;6667;52.634;9.226;2023-08-31T19:38:16;13.60;95.80
13205;DHT22;6667;52.634;9.226;2023-08-31T19:40:44;13.50;99.90
13205;DHT22;6667;52.634;9.226;2023-08-31T19:43:10;13.50;97.00
13205;DHT22;6667;52.634;9.226;2023-08-31T19:45:39;13.30;99.90
13205;DHT22;6667;52.634;9.226;2023-08-31T19:48:06;13.30;99.90
13205;DHT22;6667;52.634;9.226;2023-08-31T19:50:33;13.30;99.90
13205;DHT22;6667;52.634;9.226;2023-08-31T19:53:03;13.30;99.90
13205;DHT22;6667;52.634;9.226;2023-08-31T19:55:32;13.30;99.90
13205;DHT22;6667;52.634;9.226;2023-08-31T19:57:59;13.20;99.90
13205;DHT22;6667;52.634;9.226;2023-08-31T20:00:26;13.20;99.90
13205;DHT22;6667;52.634;9.226;2023-08-31T20:02:53;13.10;99.90
13205;DHT22;6667;52.634;9.226;2023-08-31T20:05:20;13.10;99.90
13205;DHT22;6667;52.634;9.226;2023-08-31T20:07:49;13.00;99.90
13205;DHT22;6667;52.634;9.226;2023-08-31T20:10:17;13.10;99.90
13205;DHT22;6667;52.634;9.226;2023-08-31T20:12:45;13.10;99.90
13205;DHT22;6667;52.634;9.226;2023-08-31T20:15:12;13.10;98.10
13205;DHT22;6667;52.634;9.226;2023-08-31T20:17:39;13.00;99.90
13205;DHT22;6667;52.634;9.226;2023-08-31T20:20:08;13.00;99.90
13205;DHT22;6667;52.634;9.226;2023-08-31T20:22:36;13.00;99.90
13205;DHT22;6667;52.634;9.226;2023-08-31T20:25:04;12.90;99.90
13205;DHT22;6667;52.634;9.226;2023-08-31T20:27:31;12.70;99.90
13205;DHT22;6667;52.634;9.226;2023-08-31T20:29:59;12.50;99.90
13205;DHT22;6667;52.634;9.226;2023-08-31T20:32:26;12.30;99.90
13205;DHT22;6667;52.634;9.226;2023-08-31T20:34:54;12.20;99.90
13205;DHT22;6667;52.634;9.226;2023-08-31T20:37:21;12.20;99.90
13205;DHT22;6667;52.634;9.226;2023-08-31T20:39:49;12.10;99.90
13205;DHT22;6667;52.634;9.226;2023-08-31T20:42:15;12.00;99.90
13205;DHT22;6667;52.634;9.226;2023-08-31T20:44:42;12.10;99.90
13205;DHT22;6667;52.634;9.226;2023-08-31T20:47:10;12.10;99.90
13205;DHT22;6667;52.634;9.226;2023-08-31T20:49:38;12.10;99.90
13205;DHT22;6667;52.634;9.226;2023-08-31T20:52:05;12.10;99.90
13205;DHT22;6667;52.634;9.226;2023-08-31T20:54:31;12.20;99.90
13205;DHT22;6667;52.634;9.226;2023-08-31T20:56:59;12.20;99.90
13205;DHT22;6667;52.634;9.226;2023-08-31T20:59:25;12.30;99.90
13205;DHT22;6667;52.634;9.226;2023-08-31T21:01:52;12.30;1.00
13205;DHT22;6667;52.634;9.226;2023-08-31T21:04:20;12.30;5.30
13205;DHT22;6667;52.634;9.226;2023-08-31T21:06:47;12.20;88.90
13205;DHT22;6667;52.634;9.226;2023-08-31T21:09:14;12.20;1.00
13205;DHT22;6667;52.634;9.226;2023-08-31T21:11:42;12.10;99.90
13205;DHT22;6667;52.634;9.226;2023-08-31T21:14:09;12.00;99.90
13205;DHT22;6667;52.634;9.226;2023-08-31T21:16:36;11.90;99.90
13205;DHT22;6667;52.634;9.226;2023-08-31T21:19:03;11.90;99.90
13205;DHT22;6667;52.634;9.226;2023-08-31T21:21:31;11.90;99.90
13205;DHT22;6667;52.634;9.226;2023-08-31T21:23:58;11.90;99.90
13205;DHT22;6667;52.634;9.226;2023-08-31T21:26:25;11.90;99.90
13205;DHT22;6667;52.634;9.226;2023-08-31T21:28:51;12.00;1.00
13205;DHT22;6667;52.634;9.226;2023-08-31T21:31:18;11.90;1.00
13205;DHT22;6667;52.634;9.226;2023-08-31T21:33:45;11.90;1.00
13205;DHT22;6667;52.634;9.226;2023-08-31T21:36:11;11.80;99.90
13205;DHT22;6667;52.634;9.226;2023-08-31T21:38:39;11.90;99.90
13205;DHT22;6667;52.634;9.226;2023-08-31T21:41:06;11.90;99.90
13205;DHT22;6667;52.634;9.226;2023-08-31T21:43:33;11.80;99.90
13205;DHT22;6667;52.634;9.226;2023-08-31T21:46:00;11.80;99.90
13205;DHT22;6667;52.634;9.226;2023-08-31T21:48:27;11.70;99.90
13205;DHT22;6667;52.634;9.226;2023-08-31T21:50:54;11.60;99.90
13205;DHT22;6667;52.634;9.226;2023-08-31T21:53:21;11.70;99.90
13205;DHT22;6667;52.634;9.226;2023-08-31T21:55:50;11.70;99.90
13205;DHT22;6667;52.634;9.226;2023-08-31T21:58:17;11.70;99.90
13205;DHT22;6667;52.634;9.226;2023-08-31T22:00:44;11.70;99.90
13205;DHT22;6667;52.634;9.226;2023-08-31T22:03:10;11.50;99.90
13205;DHT22;6667;52.634;9.226;2023-08-31T22:05:37;11.50;99.90
13205;DHT22;6667;52.634;9.226;2023-08-31T22:08:04;11.40;99.90
13205;DHT22;6667;52.634;9.226;2023-08-31T22:10:32;11.40;99.90
13205;DHT22;6667;52.634;9.226;2023-08-31T22:13:00;11.50;99.90
13205;DHT22;6667;52.634;9.226;2023-08-31T22:15:27;11.40;99.90
13205;DHT22;6667;52.634;9.226;2023-08-31T22:17:55;11.50;99.90
13205;DHT22;6667;52.634;9.226;2023-08-31T22:20:23;11.50;99.90
13205;DHT22;6667;52.634;9.226;2023-08-31T22:22:53;11.50;99.90
13205;DHT22;6667;52.634;9.226;2023-08-31T22:25:23;11.60;99.90
13205;DHT22;6667;52.634;9.226;2023-08-31T22:27:51;11.50;99.90